createdAt,value
2018-05-03T15:49:45.143Z,51.10
2018-05-03T15:51:47.831Z,52.60
2018-05-03T15:53:50.536Z,50.90
2018-05-03T15:55:53.227Z,51.50
2018-05-03T15:57:55.968Z,51.40
2018-05-03T15:59:58.645Z,53.00
2018-05-03T16:02:01.328Z,52.50
2018-05-03T16:04:04.053Z,51.20
2018-05-03T16:06:06.832Z,48.90
2018-05-03T16:08:09.522Z,48.60
2018-05-03T16:10:13.002Z,49.30
2018-05-03T16:12:15.683Z,49.30
2018-05-03T16:14:18.467Z,48.10
2018-05-03T16:16:21.172Z,49.60
2018-05-03T16:18:23.889Z,50.20
2018-05-03T16:20:26.679Z,50.60
2018-05-03T16:22:29.359Z,52.00
2018-05-03T16:24:32.048Z,53.80
2018-05-03T16:26:43.425Z,52.80
2018-05-03T16:28:46.144Z,52.30
2018-05-03T16:30:48.867Z,52.70
2018-05-03T16:32:51.583Z,53.50
2018-05-03T16:34:54.318Z,52.30
2018-05-03T16:36:57.036Z,51.90
2018-05-03T16:38:59.747Z,54.40
2018-05-03T16:41:02.451Z,52.80
2018-05-03T16:43:05.153Z,53.50
2018-05-03T16:45:08.608Z,53.10
2018-05-03T16:47:11.372Z,53.10
2018-05-03T16:49:14.042Z,55.20
2018-05-03T16:51:16.755Z,54.40
2018-05-03T16:53:19.482Z,53.20
2018-05-03T16:55:23.215Z,53.40
2018-05-03T16:57:25.944Z,54.20
2018-05-03T16:59:28.704Z,55.20
2018-05-03T17:01:31.418Z,54.80
2018-05-03T17:03:34.913Z,53.50
2018-05-03T17:05:37.622Z,53.40
2018-05-03T17:07:40.346Z,54.60
2018-05-03T17:09:43.091Z,54.60
2018-05-03T17:11:45.802Z,53.80
2018-05-03T17:13:48.511Z,54.00
2018-05-03T17:15:51.177Z,55.10
2018-05-03T17:17:53.885Z,54.60
2018-05-03T17:19:56.579Z,54.20
2018-05-03T17:21:59.264Z,54.40
2018-05-03T17:24:01.992Z,54.50
2018-05-03T17:26:04.709Z,54.60
2018-05-03T17:28:07.432Z,54.00
2018-05-03T17:30:10.130Z,54.00
2018-05-03T17:32:13.714Z,54.40
2018-05-03T17:34:16.426Z,54.40
2018-05-03T17:36:19.123Z,53.40
2018-05-03T17:38:22.616Z,54.30
2018-05-03T17:40:25.321Z,54.30
2018-05-03T17:42:28.017Z,55.30
2018-05-03T17:44:30.829Z,54.70
2018-05-03T17:46:33.506Z,55.10
2018-05-03T17:48:36.239Z,54.90
2018-05-03T17:50:38.928Z,54.30
2018-05-03T17:52:41.647Z,54.70
2018-05-03T17:54:44.371Z,53.80
2018-05-03T17:56:47.060Z,54.30
2018-05-03T17:58:49.783Z,54.30
2018-05-03T18:00:52.460Z,53.90
2018-05-03T18:02:55.156Z,55.00
2018-05-03T18:04:58.656Z,54.70
2018-05-03T18:07:02.100Z,54.90
2018-05-03T18:09:05.778Z,54.90
2018-05-03T18:11:08.454Z,54.80
2018-05-03T18:13:11.133Z,55.10
2018-05-03T18:15:13.826Z,55.30
2018-05-03T18:17:16.486Z,56.10
2018-05-03T18:19:19.199Z,57.80
2018-05-03T18:21:21.950Z,57.00
2018-05-03T18:23:24.841Z,57.80
2018-05-03T18:25:27.568Z,57.50
2018-05-03T18:27:31.044Z,57.70
2018-05-03T18:29:33.787Z,57.60
2018-05-03T18:31:36.531Z,58.10
2018-05-03T18:33:39.245Z,58.20
2018-05-03T18:35:41.956Z,58.90
2018-05-03T18:37:45.424Z,60.40
2018-05-03T18:39:48.472Z,59.70
2018-05-03T18:41:51.193Z,61.00
2018-05-03T18:43:53.922Z,60.40
2018-05-03T18:45:56.640Z,60.80
2018-05-03T18:47:59.406Z,61.40
2018-05-03T18:50:02.076Z,61.70
2018-05-03T18:52:04.814Z,63.50
2018-05-03T18:54:07.542Z,62.90
2018-05-03T18:56:10.513Z,65.30
2018-05-03T18:58:13.235Z,65.10
2018-05-03T19:00:15.958Z,65.50
2018-05-03T19:02:18.656Z,66.00
2018-05-03T19:04:21.318Z,66.50
2018-05-03T19:06:24.090Z,65.70
2018-05-03T19:08:26.815Z,70.00
2018-05-03T19:10:29.551Z,69.50
2018-05-03T19:12:32.268Z,68.30
2018-05-03T19:14:34.998Z,68.80
2018-05-03T19:16:37.721Z,69.00
2018-05-03T19:18:41.278Z,69.90
2018-05-03T19:20:44.316Z,69.80
2018-05-03T19:22:47.066Z,70.80
2018-05-03T19:24:49.864Z,69.50
2018-05-03T19:26:52.611Z,70.90
2018-05-03T19:28:55.352Z,72.20
2018-05-03T19:30:58.143Z,71.70
2018-05-03T19:33:00.868Z,71.80
2018-05-03T19:35:03.619Z,71.70
2018-05-03T19:37:06.324Z,71.60
2018-05-03T19:39:09.055Z,72.60
2018-05-03T19:41:11.801Z,73.80
2018-05-03T19:43:15.329Z,78.00
2018-05-03T19:45:18.095Z,77.80
2018-05-03T19:47:20.828Z,78.40
2018-05-03T19:49:23.523Z,82.40
2018-05-03T19:51:27.192Z,88.40
2018-05-03T19:53:29.897Z,88.30
2018-05-03T19:55:32.629Z,90.80
2018-05-03T19:57:35.290Z,93.30
2018-05-03T19:59:38.065Z,91.90
2018-05-03T20:01:40.837Z,95.10
2018-05-03T20:03:43.613Z,99.10
2018-05-03T20:05:46.316Z,99.90
2018-05-03T20:07:49.076Z,99.90
2018-05-03T20:09:52.674Z,99.90
2018-05-03T20:11:55.442Z,99.90
2018-05-03T20:13:58.158Z,99.90
2018-05-03T20:16:00.945Z,99.90
2018-05-03T20:18:03.643Z,99.90
2018-05-03T20:20:06.384Z,99.90
2018-05-03T20:22:09.106Z,99.90
2018-05-03T20:24:11.794Z,99.90
2018-05-03T20:26:15.255Z,99.90
2018-05-03T20:28:17.927Z,99.90
2018-05-03T20:30:20.680Z,99.90
2018-05-03T20:32:23.374Z,99.90
2018-05-03T20:34:26.055Z,99.90
2018-05-03T20:36:28.825Z,99.90
2018-05-03T20:38:31.518Z,99.90
2018-05-03T20:40:34.250Z,99.90
2018-05-03T20:42:36.922Z,99.90
2018-05-03T20:44:39.621Z,99.90
2018-05-03T20:46:42.349Z,99.90
2018-05-03T20:48:45.023Z,99.90
2018-05-03T20:50:47.807Z,99.90
2018-05-03T20:52:51.255Z,99.90
2018-05-03T20:54:53.940Z,99.90
2018-05-03T20:56:56.625Z,99.90
2018-05-03T20:58:59.339Z,99.90
2018-05-03T21:01:02.829Z,99.90
2018-05-03T21:03:06.276Z,99.90
2018-05-03T21:05:08.939Z,99.90
2018-05-03T21:07:11.639Z,99.90
2018-05-03T21:09:15.135Z,99.90
2018-05-03T21:11:17.844Z,99.90
2018-05-03T21:13:21.293Z,99.90
2018-05-03T21:15:24.023Z,99.90
2018-05-03T21:17:27.485Z,99.90
2018-05-03T21:19:30.205Z,99.90
2018-05-03T21:21:32.909Z,99.90
2018-05-03T21:23:35.566Z,99.90
2018-05-03T21:25:38.260Z,99.90
2018-05-03T21:27:40.941Z,99.90
2018-05-03T21:29:43.623Z,99.90
2018-05-03T21:31:46.329Z,99.90
2018-05-03T21:33:49.026Z,99.90
2018-05-03T21:35:52.464Z,99.90
2018-05-03T21:37:55.225Z,99.90
2018-05-03T21:39:57.946Z,99.90
2018-05-03T21:42:00.636Z,99.90
2018-05-03T21:44:03.389Z,99.90
2018-05-03T21:46:06.892Z,99.90
2018-05-03T21:48:09.624Z,99.90
2018-05-03T21:50:12.415Z,99.90
2018-05-03T21:52:15.133Z,99.90
2018-05-03T21:54:18.061Z,99.90
2018-05-03T21:56:20.727Z,99.90
2018-05-03T21:58:24.322Z,99.90
2018-05-03T22:00:27.758Z,99.90
2018-05-03T22:02:30.424Z,99.90
2018-05-03T22:04:33.120Z,99.90
2018-05-03T22:06:35.876Z,99.90
2018-05-03T22:08:38.555Z,99.90
2018-05-03T22:10:41.249Z,99.90
2018-05-03T22:12:43.905Z,99.90
2018-05-03T22:14:46.585Z,99.90
2018-05-03T22:16:49.260Z,99.90
2018-05-03T22:18:51.925Z,99.90
2018-05-03T22:20:54.629Z,99.90
2018-05-03T22:22:57.289Z,99.90
2018-05-03T22:24:59.981Z,99.90
2018-05-03T22:27:02.654Z,99.90
2018-05-03T22:29:05.416Z,99.90
2018-05-03T22:31:08.096Z,99.90
2018-05-03T22:33:10.757Z,99.90
2018-05-03T22:35:13.431Z,99.90
2018-05-03T22:37:16.080Z,99.90
2018-05-03T22:39:19.498Z,99.90
2018-05-03T22:41:22.174Z,99.90
2018-05-03T22:43:24.850Z,99.90
2018-05-03T22:45:27.532Z,99.90
2018-05-03T22:47:30.198Z,99.90
2018-05-03T22:49:32.873Z,99.90
2018-05-03T22:51:36.333Z,99.90
2018-05-03T22:53:38.992Z,99.90
2018-05-03T22:55:41.695Z,99.90
2018-05-03T22:57:44.370Z,99.90
2018-05-03T22:59:47.050Z,99.90
2018-05-03T23:01:49.748Z,99.90
2018-05-03T23:03:52.418Z,99.90
2018-05-03T23:05:55.861Z,99.90
2018-05-03T23:07:58.648Z,99.90
2018-05-03T23:10:01.309Z,99.90
2018-05-03T23:12:03.997Z,99.90
2018-05-03T23:14:06.681Z,99.90
2018-05-03T23:16:09.410Z,99.90
2018-05-03T23:18:12.069Z,99.90
2018-05-03T23:20:14.745Z,99.90
2018-05-03T23:22:17.447Z,99.90
2018-05-03T23:24:20.928Z,99.90
2018-05-03T23:26:24.392Z,99.90
2018-05-03T23:28:27.098Z,99.90
2018-05-03T23:30:30.612Z,99.90
2018-05-03T23:32:33.242Z,99.90
2018-05-03T23:34:35.916Z,99.90
2018-05-03T23:36:38.586Z,99.90
2018-05-03T23:38:41.281Z,99.90
2018-05-03T23:40:43.960Z,99.90
2018-05-03T23:42:46.668Z,99.90
2018-05-03T23:44:50.101Z,99.90
2018-05-03T23:46:52.813Z,99.90
2018-05-03T23:48:55.496Z,99.90
2018-05-03T23:50:58.951Z,99.90
2018-05-03T23:53:01.682Z,99.90
2018-05-03T23:55:05.131Z,99.90
2018-05-03T23:57:07.832Z,99.90
2018-05-03T23:59:10.568Z,99.90
